createdAt,value
2018-03-11T00:00:59.102Z,97551.07
2018-03-11T00:03:28.955Z,97558.12
2018-03-11T00:05:58.821Z,97560.28
2018-03-11T00:08:28.614Z,97560.39
2018-03-11T00:10:58.403Z,97548.92
2018-03-11T00:13:28.200Z,97542.50
2018-03-11T00:15:58.038Z,97550.30
2018-03-11T00:18:27.845Z,97550.66
2018-03-11T00:20:57.662Z,97550.56
2018-03-11T00:23:27.461Z,97542.41
2018-03-11T00:25:58.756Z,97537.27
2018-03-11T00:28:28.329Z,97525.42
2018-03-11T00:30:58.122Z,97521.67
2018-03-11T00:33:27.957Z,97520.21
2018-03-11T00:35:57.762Z,97522.97
2018-03-11T00:38:27.603Z,97524.50
2018-03-11T00:40:57.393Z,97521.17
2018-03-11T00:43:27.246Z,97523.44
2018-03-11T00:45:57.045Z,97518.68
2018-03-11T00:48:26.823Z,97518.59
2018-03-11T00:50:56.647Z,97514.38
2018-03-11T00:53:26.439Z,97517.66
2018-03-11T00:55:56.248Z,97512.05
2018-03-11T00:58:26.067Z,97500.83
2018-03-11T01:00:55.861Z,97496.19
2018-03-11T01:03:25.692Z,97493.33
2018-03-11T01:05:55.502Z,97493.59
2018-03-11T01:08:25.427Z,97486.42
2018-03-11T01:10:55.250Z,97488.03
2018-03-11T01:13:25.119Z,97482.11
2018-03-11T01:15:54.914Z,97480.05
2018-03-11T01:18:24.787Z,97469.08
2018-03-11T01:20:54.588Z,97463.30
2018-03-11T01:23:24.404Z,97459.92
2018-03-11T01:25:54.258Z,97454.16
2018-03-11T01:28:24.680Z,97453.89
2018-03-11T01:30:54.485Z,97447.98
2018-03-11T01:33:24.275Z,97445.39
2018-03-11T01:35:54.137Z,97442.97
2018-03-11T01:38:23.917Z,97441.41
2018-03-11T01:40:53.730Z,97437.16
2018-03-11T01:43:23.308Z,97428.58
2018-03-11T01:45:53.126Z,97418.81
2018-03-11T01:48:22.948Z,97413.41
2018-03-11T01:50:52.763Z,97411.90
2018-03-11T01:53:22.577Z,97403.72
2018-03-11T01:55:52.397Z,97402.72
2018-03-11T01:58:22.216Z,97402.53
2018-03-11T02:00:52.015Z,97398.09
2018-03-11T02:03:21.822Z,97397.58
2018-03-11T02:05:51.641Z,97389.25
2018-03-11T02:08:21.542Z,97397.02
2018-03-11T02:10:51.393Z,97384.36
2018-03-11T02:13:21.231Z,97385.43
2018-03-11T02:15:51.064Z,97388.72
2018-03-11T02:18:20.891Z,97385.43
2018-03-11T02:20:50.725Z,97389.11
2018-03-11T02:23:20.542Z,97386.47
2018-03-11T02:25:50.107Z,97376.83
2018-03-11T02:28:19.937Z,97379.79
2018-03-11T02:30:50.027Z,97389.94
2018-03-11T02:33:19.872Z,97387.92
2018-03-11T02:35:49.716Z,97394.19
2018-03-11T02:38:19.605Z,97391.45
2018-03-11T02:40:49.477Z,97395.21
2018-03-11T02:43:19.274Z,97385.59
2018-03-11T02:45:49.084Z,97382.20
2018-03-11T02:48:18.876Z,97384.41
2018-03-11T02:50:49.542Z,97379.64
2018-03-11T02:53:19.463Z,97379.34
2018-03-11T02:55:49.274Z,97374.02
2018-03-11T02:58:19.074Z,97388.08
2018-03-11T03:00:48.929Z,97383.67
2018-03-11T03:03:18.789Z,97385.03
2018-03-11T03:05:48.786Z,97383.20
2018-03-11T03:08:18.876Z,97383.67
2018-03-11T03:10:48.693Z,97387.99
2018-03-11T03:13:18.497Z,97392.98
2018-03-11T03:15:48.380Z,97389.16
2018-03-11T03:18:17.940Z,97388.11
2018-03-11T03:20:47.744Z,97381.70
2018-03-11T03:23:17.336Z,97377.72
2018-03-11T03:25:46.979Z,97384.23
2018-03-11T03:28:16.785Z,97384.24
2018-03-11T03:30:46.939Z,97381.18
2018-03-11T03:33:16.969Z,97383.60
2018-03-11T03:35:46.804Z,97379.09
2018-03-11T03:38:16.616Z,97378.17
2018-03-11T03:40:46.412Z,97375.22
2018-03-11T03:43:16.224Z,97374.39
2018-03-11T03:45:46.088Z,97378.08
2018-03-11T03:48:15.907Z,97367.45
2018-03-11T03:50:45.720Z,97360.86
2018-03-11T03:53:15.541Z,97370.22
2018-03-11T03:55:45.348Z,97362.17
2018-03-11T03:58:15.164Z,97365.27
2018-03-11T04:00:44.982Z,97363.53
2018-03-11T04:03:14.786Z,97350.27
2018-03-11T04:05:44.624Z,97345.72
2018-03-11T04:08:14.568Z,97351.00
2018-03-11T04:10:44.378Z,97349.62
2018-03-11T04:13:14.209Z,97344.91
2018-03-11T04:15:44.062Z,97337.74
2018-03-11T04:18:13.647Z,97339.36
2018-03-11T04:20:43.502Z,97328.77
2018-03-11T04:23:13.379Z,97316.65
2018-03-11T04:25:43.260Z,97321.65
2018-03-11T04:28:13.051Z,97322.34
2018-03-11T04:30:42.974Z,97316.34
2018-03-11T04:33:12.905Z,97315.34
2018-03-11T04:35:42.690Z,97310.77
2018-03-11T04:38:12.481Z,97314.23
2018-03-11T04:40:42.282Z,97303.80
2018-03-11T04:43:12.101Z,97303.84
2018-03-11T04:45:41.905Z,97305.42
2018-03-11T04:48:11.763Z,97299.05
2018-03-11T04:50:41.563Z,97300.19
2018-03-11T04:53:11.400Z,97303.55
2018-03-11T04:55:41.189Z,97303.23
2018-03-11T04:58:10.996Z,97299.19
2018-03-11T05:00:40.934Z,97295.55
2018-03-11T05:03:10.732Z,97299.59
2018-03-11T05:05:40.570Z,97296.66
2018-03-11T05:08:10.840Z,97297.80
2018-03-11T05:10:40.645Z,97292.23
2018-03-11T05:13:10.466Z,97288.61
2018-03-11T05:15:40.330Z,97283.50
2018-03-11T05:18:10.733Z,97285.30
2018-03-11T05:20:40.540Z,97288.05
2018-03-11T05:23:10.366Z,97284.89
2018-03-11T05:25:40.198Z,97285.17
2018-03-11T05:28:10.061Z,97278.10
2018-03-11T05:30:40.073Z,97264.11
2018-03-11T05:33:10.168Z,97259.16
2018-03-11T05:35:40.042Z,97256.28
2018-03-11T05:38:09.847Z,97251.89
2018-03-11T05:40:39.702Z,97259.34
2018-03-11T05:43:09.522Z,97253.70
2018-03-11T05:45:39.328Z,97244.63
2018-03-11T05:48:09.115Z,97239.48
2018-03-11T05:50:38.966Z,97233.84
2018-03-11T05:53:08.762Z,97230.19
2018-03-11T05:55:39.044Z,97233.53
2018-03-11T05:58:08.879Z,97231.21
2018-03-11T06:00:38.685Z,97222.23
2018-03-11T06:03:08.488Z,97212.20
2018-03-11T06:05:38.285Z,97204.95
2018-03-11T06:08:08.176Z,97197.87
2018-03-11T06:10:38.094Z,97200.27
2018-03-11T06:13:08.061Z,97201.30
2018-03-11T06:15:37.929Z,97201.00
2018-03-11T06:18:07.736Z,97211.03
2018-03-11T06:20:41.612Z,97208.92
2018-03-11T06:23:11.418Z,97203.69
2018-03-11T06:25:41.262Z,97200.80
2018-03-11T06:28:11.093Z,97203.22
2018-03-11T06:30:40.906Z,97204.63
2018-03-11T06:33:10.722Z,97195.06
2018-03-11T06:35:40.602Z,97193.45
2018-03-11T06:38:09.808Z,97194.59
2018-03-11T06:40:39.329Z,97197.65
2018-03-11T06:43:09.127Z,97192.98
2018-03-11T06:45:38.969Z,97198.80
2018-03-11T06:48:08.845Z,97208.12
2018-03-11T06:50:38.637Z,97207.95
2018-03-11T06:53:08.471Z,97209.30
2018-03-11T06:55:38.269Z,97210.13
2018-03-11T06:58:08.119Z,97210.31
2018-03-11T07:00:38.174Z,97217.13
2018-03-11T07:03:07.965Z,97204.23
2018-03-11T07:05:38.167Z,97208.50
2018-03-11T07:08:08.174Z,97214.97
2018-03-11T07:10:38.033Z,97207.73
2018-03-11T07:13:07.876Z,97200.52
2018-03-11T07:15:37.685Z,97196.62
2018-03-11T07:18:07.221Z,97184.36
2018-03-11T07:20:37.036Z,97187.63
2018-03-11T07:23:06.566Z,97192.30
2018-03-11T07:25:36.083Z,97191.63
2018-03-11T07:28:05.648Z,97196.87
2018-03-11T07:30:35.194Z,97190.58
2018-03-11T07:33:04.714Z,97186.33
2018-03-11T07:35:34.303Z,97189.84
2018-03-11T07:38:03.844Z,97171.80
2018-03-11T07:40:33.408Z,97164.94
2018-03-11T07:43:02.950Z,97162.65
2018-03-11T07:45:32.464Z,97161.87
2018-03-11T07:48:02.017Z,97153.39
2018-03-11T07:50:31.794Z,97141.44
2018-03-11T07:53:01.331Z,97136.98
2018-03-11T07:55:30.861Z,97133.14
2018-03-11T07:58:01.083Z,97127.77
2018-03-11T08:00:30.714Z,97115.75
2018-03-11T08:03:00.264Z,97106.06
2018-03-11T08:05:29.790Z,97108.44
2018-03-11T08:07:59.340Z,97113.95
2018-03-11T08:10:28.917Z,97117.39
2018-03-11T08:12:58.433Z,97107.29
2018-03-11T08:15:27.961Z,97116.91
2018-03-11T08:17:57.516Z,97121.66
2018-03-11T08:20:27.056Z,97119.14
2018-03-11T08:22:56.684Z,97118.13
2018-03-11T08:25:26.223Z,97124.00
2018-03-11T08:27:56.573Z,97131.16
2018-03-11T08:30:30.121Z,97135.54
2018-03-11T08:32:59.639Z,97133.59
2018-03-11T08:35:29.196Z,97126.87
2018-03-11T08:37:58.722Z,97126.53
2018-03-11T08:40:28.260Z,97115.81
2018-03-11T08:42:57.784Z,97111.64
2018-03-11T08:45:27.357Z,97111.95
2018-03-11T08:47:56.924Z,97106.48
2018-03-11T08:50:26.437Z,97120.73
2018-03-11T08:52:55.961Z,97113.03
2018-03-11T08:55:25.464Z,97108.59
2018-03-11T08:57:55.014Z,97112.94
2018-03-11T09:00:24.531Z,97117.41
2018-03-11T09:02:54.123Z,97123.77
2018-03-11T09:05:23.672Z,97114.69
2018-03-11T09:07:53.219Z,97114.16
2018-03-11T09:10:23.368Z,97114.77
2018-03-11T09:12:53.101Z,97127.77
2018-03-11T09:15:22.730Z,97132.86
2018-03-11T09:17:52.267Z,97132.50
2018-03-11T09:20:21.523Z,97140.98
2018-03-11T09:22:51.052Z,97155.12
2018-03-11T09:25:20.855Z,97143.73
2018-03-11T09:27:50.369Z,97146.84
2018-03-11T09:30:19.960Z,97147.88
2018-03-11T09:32:49.515Z,97131.99
2018-03-11T09:35:19.082Z,97122.58
2018-03-11T09:37:48.697Z,97132.12
2018-03-11T09:40:18.273Z,97137.00
2018-03-11T09:42:47.972Z,97126.50
2018-03-11T09:45:17.490Z,97121.09
2018-03-11T09:47:47.026Z,97115.00
2018-03-11T09:50:16.297Z,97114.98
2018-03-11T09:52:45.808Z,97103.54
2018-03-11T09:55:15.335Z,97095.41
2018-03-11T09:57:44.925Z,97090.36
2018-03-11T10:00:14.620Z,97090.13
2018-03-11T10:02:44.263Z,97093.17
2018-03-11T10:05:13.831Z,97098.30
2018-03-11T10:07:43.665Z,97093.49
2018-03-11T10:10:13.431Z,97090.93
2018-03-11T10:12:42.968Z,97100.42
2018-03-11T10:15:16.264Z,97097.48
2018-03-11T10:17:45.784Z,97088.02
2018-03-11T10:20:15.331Z,97085.25
2018-03-11T10:22:44.868Z,97085.84
2018-03-11T10:25:14.393Z,97081.92
2018-03-11T10:27:43.997Z,97078.50
2018-03-11T10:30:13.582Z,97082.39
2018-03-11T10:32:43.118Z,97082.55
2018-03-11T10:35:12.721Z,97081.04
2018-03-11T10:37:42.242Z,97068.65
2018-03-11T10:40:11.748Z,97058.02
2018-03-11T10:42:41.277Z,97045.98
2018-03-11T10:45:10.813Z,97039.81
2018-03-11T10:47:42.138Z,97045.87
2018-03-11T10:50:11.713Z,97054.74
2018-03-11T10:52:41.226Z,97054.88
2018-03-11T10:55:10.742Z,97046.73
2018-03-11T10:57:40.901Z,97040.38
2018-03-11T11:00:10.427Z,97024.00
2018-03-11T11:02:39.753Z,97011.48
2018-03-11T11:05:09.267Z,97000.39
2018-03-11T11:07:38.782Z,96985.45
2018-03-11T11:10:08.321Z,96983.53
2018-03-11T11:12:37.854Z,96989.31
2018-03-11T11:15:07.386Z,96988.20
2018-03-11T11:17:37.008Z,96994.59
2018-03-11T11:20:06.536Z,96990.63
2018-03-11T11:22:37.353Z,96980.59
2018-03-11T11:25:07.682Z,96978.25
2018-03-11T11:27:38.207Z,96976.30
2018-03-11T11:30:07.841Z,96977.61
2018-03-11T11:32:37.400Z,96980.45
2018-03-11T11:35:06.922Z,96963.63
2018-03-11T11:37:36.635Z,96962.53
2018-03-11T11:40:06.174Z,96956.42
2018-03-11T11:42:35.679Z,96945.23
2018-03-11T11:45:04.889Z,96934.03
2018-03-11T11:47:34.447Z,96929.50
2018-03-11T11:50:03.967Z,96926.73
2018-03-11T11:52:33.497Z,96922.37
2018-03-11T11:55:03.226Z,96922.45
2018-03-11T11:57:32.364Z,96919.02
2018-03-11T12:00:01.878Z,96894.80
2018-03-11T12:02:31.454Z,96878.61
2018-03-11T12:05:00.971Z,96873.69
2018-03-11T12:07:30.483Z,96858.38
2018-03-11T12:10:00.015Z,96857.80
2018-03-11T12:12:29.542Z,96846.37
2018-03-11T12:14:59.119Z,96849.46
2018-03-11T12:17:28.673Z,96841.69
2018-03-11T12:19:58.197Z,96838.59
2018-03-11T12:22:27.727Z,96836.53
2018-03-11T12:24:57.354Z,96826.91
2018-03-11T12:27:27.101Z,96828.30
2018-03-11T12:29:56.610Z,96828.68
2018-03-11T12:32:26.176Z,96827.18
2018-03-11T12:34:55.758Z,96819.42
2018-03-11T12:37:25.537Z,96812.16
2018-03-11T12:39:55.136Z,96789.47
2018-03-11T12:42:24.648Z,96794.56
2018-03-11T12:44:54.361Z,96794.34
2018-03-11T12:47:27.596Z,96784.70
2018-03-11T12:49:57.180Z,96783.82
2018-03-11T12:52:26.704Z,96783.05
2018-03-11T12:54:56.270Z,96785.00
2018-03-11T12:57:25.867Z,96786.59
2018-03-11T12:59:55.374Z,96770.72
2018-03-11T13:02:24.956Z,96774.38
2018-03-11T13:04:54.487Z,96777.55
2018-03-11T13:07:24.685Z,96775.08
2018-03-11T13:09:54.222Z,96768.50
2018-03-11T13:12:23.720Z,96768.55
2018-03-11T13:14:53.271Z,96753.98
2018-03-11T13:17:22.781Z,96749.67
2018-03-11T13:23:10.353Z,96753.16
2018-03-11T13:25:39.850Z,96755.19
2018-03-11T13:28:20.690Z,96737.13
2018-03-11T13:30:49.957Z,96734.18
2018-03-11T13:33:31.206Z,96725.18
2018-03-11T13:36:00.457Z,96719.67
2018-03-11T13:38:40.982Z,96717.21
2018-03-11T13:41:10.249Z,96711.44
2018-03-11T13:43:39.768Z,96709.41
2018-03-11T13:46:20.340Z,96704.97
2018-03-11T13:48:49.592Z,96701.43
2018-03-11T13:51:30.586Z,96709.75
2018-03-11T13:53:59.473Z,96703.50
2018-03-11T13:56:28.833Z,96702.77
2018-03-11T13:58:57.838Z,96697.45
2018-03-11T14:01:27.337Z,96695.95
2018-03-11T14:03:57.053Z,96703.50
2018-03-11T14:06:26.632Z,96697.07
2018-03-11T14:08:56.019Z,96690.34
2018-03-11T14:11:25.742Z,96694.24
2018-03-11T14:13:55.314Z,96687.00
2018-03-11T14:16:24.842Z,96685.55
2018-03-11T14:18:54.373Z,96677.45
2018-03-11T14:21:24.129Z,96673.80
2018-03-11T14:23:53.652Z,96669.39
2018-03-11T14:26:23.285Z,96668.70
2018-03-11T14:28:53.634Z,96663.19
2018-03-11T14:31:23.186Z,96671.69
2018-03-11T14:33:53.506Z,96654.05
2018-03-11T14:36:23.076Z,96658.23
2018-03-11T14:38:52.596Z,96650.57
2018-03-11T14:41:22.149Z,96648.88
2018-03-11T14:43:52.637Z,96652.12
2018-03-11T14:46:22.210Z,96640.98
2018-03-11T14:48:51.733Z,96638.45
2018-03-11T14:51:21.370Z,96634.86
2018-03-11T14:53:50.917Z,96629.44
2018-03-11T14:56:20.436Z,96629.41
2018-03-11T14:58:49.947Z,96623.54
2018-03-11T15:01:19.456Z,96623.73
2018-03-11T15:03:49.056Z,96621.78
2018-03-11T15:06:18.570Z,96624.83
2018-03-11T15:08:48.353Z,96630.88
2018-03-11T15:11:17.897Z,96627.31
2018-03-11T15:13:47.400Z,96620.55
2018-03-11T15:16:17.018Z,96620.12
2018-03-11T15:18:46.521Z,96615.33
2018-03-11T15:21:16.111Z,96613.22
2018-03-11T15:23:45.884Z,96611.91
2018-03-11T15:26:15.421Z,96612.64
2018-03-11T15:28:45.117Z,96600.15
2018-03-11T15:31:14.623Z,96600.33
2018-03-11T15:33:44.163Z,96597.84
2018-03-11T15:36:13.692Z,96593.06
2018-03-11T15:38:43.192Z,96594.67
2018-03-11T15:41:12.713Z,96585.38
2018-03-11T15:43:42.218Z,96580.33
2018-03-11T15:46:11.741Z,96580.50
2018-03-11T15:48:41.269Z,96580.33
2018-03-11T15:51:10.834Z,96577.91
2018-03-11T15:53:40.355Z,96580.28
2018-03-11T15:56:09.873Z,96586.68
2018-03-11T15:58:39.420Z,96585.98
2018-03-11T16:01:09.013Z,96576.37
2018-03-11T16:03:38.644Z,96573.20
2018-03-11T16:06:08.212Z,96562.58
2018-03-11T16:08:37.719Z,96568.63
2018-03-11T16:11:11.144Z,96562.86
2018-03-11T16:13:40.666Z,96568.92
2018-03-11T16:16:10.166Z,96572.77
2018-03-11T16:18:39.697Z,96578.71
2018-03-11T16:21:13.481Z,96582.66
2018-03-11T16:23:42.999Z,96591.90
2018-03-11T16:26:12.537Z,96595.16
2018-03-11T16:28:42.233Z,96588.45
2018-03-11T16:31:12.243Z,96584.75
2018-03-11T16:33:42.907Z,96582.68
2018-03-11T16:36:12.139Z,96585.80
2018-03-11T16:38:41.659Z,96581.17
2018-03-11T16:41:11.203Z,96579.87
2018-03-11T16:43:40.728Z,96581.75
2018-03-11T16:46:10.993Z,96584.34
2018-03-11T16:48:40.504Z,96586.37
2018-03-11T16:51:09.755Z,96579.50
2018-03-11T16:53:39.350Z,96581.00
2018-03-11T16:56:08.894Z,96581.81
2018-03-11T16:58:38.419Z,96585.17
2018-03-11T17:01:07.944Z,96578.64
2018-03-11T17:03:37.460Z,96574.38
2018-03-11T17:06:06.979Z,96564.50
2018-03-11T17:08:36.218Z,96566.44
2018-03-11T17:11:05.807Z,96567.31
2018-03-11T17:13:35.417Z,96565.56
2018-03-11T17:16:05.094Z,96564.25
2018-03-11T17:18:34.620Z,96557.53
2018-03-11T17:21:03.867Z,96556.32
2018-03-11T17:23:33.142Z,96549.86
2018-03-11T17:26:02.653Z,96550.80
2018-03-11T17:28:32.208Z,96555.33
2018-03-11T17:31:01.859Z,96552.99
2018-03-11T17:33:31.367Z,96556.56
2018-03-11T17:36:00.860Z,96546.94
2018-03-11T17:38:30.414Z,96535.98
2018-03-11T17:40:59.925Z,96532.86
2018-03-11T17:43:29.809Z,96531.60
2018-03-11T17:45:59.063Z,96524.06
2018-03-11T17:48:28.302Z,96520.06
2018-03-11T17:50:57.528Z,96516.13
2018-03-11T17:53:27.073Z,96507.35
2018-03-11T17:55:56.334Z,96502.27
2018-03-11T17:58:25.841Z,96494.30
2018-03-11T18:00:55.357Z,96498.88
2018-03-11T18:03:24.912Z,96498.71
2018-03-11T18:05:54.722Z,96496.61
2018-03-11T18:08:24.276Z,96495.84
2018-03-11T18:10:53.520Z,96502.67
2018-03-11T18:13:23.224Z,96499.88
2018-03-11T18:15:52.912Z,96499.06
2018-03-11T18:18:23.178Z,96493.95
2018-03-11T18:20:52.683Z,96494.11
2018-03-11T18:23:22.235Z,96487.94
2018-03-11T18:25:52.044Z,96493.55
2018-03-11T18:28:21.611Z,96483.71
2018-03-11T18:30:50.697Z,96480.19
2018-03-11T18:33:20.232Z,96484.55
2018-03-11T18:35:50.215Z,96483.08
2018-03-11T18:38:19.748Z,96478.45
2018-03-11T18:40:49.573Z,96472.88
2018-03-11T18:43:19.133Z,96472.10
2018-03-11T18:45:48.941Z,96463.34
2018-03-11T18:48:18.821Z,96466.09
2018-03-11T18:50:48.253Z,96458.85
2018-03-11T18:53:18.113Z,96449.03
2018-03-11T18:55:47.947Z,96449.16
2018-03-11T18:58:17.754Z,96446.03
2018-03-11T19:00:47.309Z,96452.15
2018-03-11T19:03:17.060Z,96444.18
2018-03-11T19:05:47.009Z,96443.32
2018-03-11T19:08:16.908Z,96430.61
2018-03-11T19:10:46.728Z,96427.81
2018-03-11T19:13:20.521Z,96422.96
2018-03-11T19:15:50.340Z,96420.56
2018-03-11T19:18:20.422Z,96420.45
2018-03-11T19:20:50.896Z,96413.28
2018-03-11T19:23:21.292Z,96417.58
2018-03-11T19:25:51.243Z,96408.77
2018-03-11T19:28:21.064Z,96401.08
2018-03-11T19:30:50.601Z,96400.61
2018-03-11T19:33:20.235Z,96394.63
2018-03-11T19:35:50.971Z,96391.54
2018-03-11T19:38:20.651Z,96395.29
2018-03-11T19:40:50.470Z,96396.31
2018-03-11T19:43:20.386Z,96393.91
2018-03-11T19:45:50.364Z,96408.34
2018-03-11T19:48:20.237Z,96415.88
2018-03-11T19:53:29.609Z,96418.39
2018-03-11T19:56:14.891Z,96421.82
2018-03-11T19:58:45.732Z,96424.63
2018-03-11T20:01:15.637Z,96422.36
2018-03-11T20:03:45.969Z,96413.70
2018-03-11T20:06:16.115Z,96412.86
2018-03-11T20:08:46.241Z,96419.59
2018-03-11T20:11:16.542Z,96415.19
2018-03-11T20:13:47.244Z,96410.27
2018-03-11T20:16:17.121Z,96407.88
2018-03-11T20:18:47.065Z,96404.81
2018-03-11T20:23:45.324Z,96400.88
2018-03-11T20:26:15.154Z,96396.22
2018-03-11T20:28:45.030Z,96399.89
2018-03-11T20:31:14.599Z,96393.05
2018-03-11T20:33:44.427Z,96388.31
2018-03-11T20:36:14.144Z,96386.68
2018-03-11T20:38:43.754Z,96383.29
2018-03-11T20:41:14.326Z,96387.95
2018-03-11T20:43:44.195Z,96387.68
2018-03-11T20:46:14.238Z,96385.20
2018-03-11T20:48:44.066Z,96383.67
2018-03-11T20:51:14.887Z,96385.53
2018-03-11T20:53:45.252Z,96381.78
2018-03-11T20:56:15.378Z,96379.81
2018-03-11T20:58:46.387Z,96381.39
2018-03-11T21:01:17.236Z,96385.42
2018-03-11T21:06:50.673Z,96376.17
2018-03-11T21:09:20.492Z,96376.66
2018-03-11T21:11:50.649Z,96372.44
2018-03-11T21:14:20.567Z,96368.55
2018-03-11T21:16:50.544Z,96369.12
2018-03-11T21:19:20.569Z,96378.12
2018-03-11T21:21:51.115Z,96373.86
2018-03-11T21:24:21.091Z,96372.73
2018-03-11T21:29:54.227Z,96375.28
2018-03-11T21:32:24.214Z,96373.64
2018-03-11T21:40:29.469Z,96378.23
2018-03-11T21:46:09.001Z,96356.02
2018-03-11T21:48:41.539Z,96346.19
2018-03-11T21:51:12.807Z,96340.58
2018-03-11T21:53:42.736Z,96330.39
2018-03-11T21:56:12.857Z,96331.70
2018-03-11T21:58:43.060Z,96325.55
2018-03-11T22:01:12.578Z,96318.64
2018-03-11T22:03:42.122Z,96312.60
2018-03-11T22:06:12.804Z,96313.26
2018-03-11T22:08:42.390Z,96309.22
2018-03-11T22:11:12.255Z,96297.75
2018-03-11T22:13:42.345Z,96298.07
2018-03-11T22:16:12.383Z,96292.88
2018-03-11T22:18:42.315Z,96293.05
2018-03-11T22:21:12.091Z,96297.06
2018-03-11T22:23:42.108Z,96292.28
2018-03-11T22:26:11.944Z,96288.64
2018-03-11T22:28:41.942Z,96288.72
2018-03-11T22:31:11.484Z,96281.81
2018-03-11T22:33:41.116Z,96272.08
2018-03-11T22:36:10.928Z,96265.31
2018-03-11T22:38:40.481Z,96259.77
2018-03-11T22:41:10.291Z,96256.83
2018-03-11T22:43:40.164Z,96245.58
2018-03-11T22:46:10.110Z,96241.61
2018-03-11T22:48:40.345Z,96229.56
2018-03-11T22:51:10.211Z,96221.02
2018-03-11T22:53:39.811Z,96224.30
2018-03-11T22:56:09.872Z,96228.23
2018-03-11T22:58:39.868Z,96221.81
2018-03-11T23:01:10.155Z,96217.22
2018-03-11T23:03:39.947Z,96210.45
2018-03-11T23:06:10.542Z,96209.16
2018-03-11T23:08:40.513Z,96204.87
2018-03-11T23:11:10.941Z,96194.44
2018-03-11T23:13:40.931Z,96188.76
2018-03-11T23:16:10.859Z,96181.36
2018-03-11T23:18:51.892Z,96175.42
2018-03-11T23:21:21.412Z,96168.59
2018-03-11T23:23:51.218Z,96174.40
2018-03-11T23:26:21.089Z,96173.52
2018-03-11T23:28:51.366Z,96175.33
2018-03-11T23:31:21.227Z,96172.98
2018-03-11T23:33:51.044Z,96172.89
2018-03-11T23:36:21.167Z,96169.97
2018-03-11T23:38:51.249Z,96165.87
2018-03-11T23:41:21.035Z,96169.52
2018-03-11T23:43:50.909Z,96165.08
2018-03-11T23:46:20.739Z,96156.67
2018-03-11T23:48:50.528Z,96151.50
2018-03-11T23:51:20.336Z,96152.54
2018-03-11T23:53:50.216Z,96155.48
2018-03-11T23:56:20.099Z,96156.93
2018-03-11T23:58:49.875Z,96155.42
